Погода Гуровона 2 недели

Великопольское воеводство, Польша

19 июля-01 августа
  • 19июля
    Сегодня
    +16°
    +26°
    Облачно с прояснениями
    ВремяПогодаТемператураВлажностьДавлениеВетер, м/сВероятность осадков
    02:00Практически безоблачно+17°C86 %757 мм2.0 м/с2 %
    05:00Ясно и безоблачно+15°C94 %757 мм1.7 м/с2 %
    08:00Ясно и безоблачно+19°C79 %757 мм1.3 м/с2 %
    11:00Небольшая облачность+23°C61 %757 мм0.7 м/с2 %
    14:00Облачно с прояснениями+25°C51 %756 мм1.5 м/с2 %
    17:00Небольшая облачность+26°C48 %754 мм1.8 м/с2 %
    20:00Практически безоблачно+24°C67 %754 мм0.9 м/с2 %
    23:00Ясно и безоблачно+19°C72 %753 мм2.2 м/с2 %
  • 20июля
    Суббота
    +16°
    +28°
    Облачно с прояснениями
    ВремяПогодаТемператураВлажностьДавлениеВетер, м/сВероятность осадков
    02:00Облачно с прояснениями+16°C85 %753 мм2.3 м/с2 %
    05:00Облачно с прояснениями+17°C86 %752 мм1.5 м/с2 %
    08:00Облачно с прояснениями+21°C71 %752 мм0.2 м/с2 %
    11:00Облачно с прояснениями+25°C51 %751 мм0.6 м/с2 %
    14:00Облачно с прояснениями+27°C41 %750 мм0.7 м/с2 %
    17:00Небольшая облачность+28°C37 %749 мм0.9 м/с2 %
    20:00Облачно с прояснениями+26°C52 %748 мм2.7 м/с2 %
    23:00Ясно и безоблачно+21°C57 %748 мм3.3 м/с2 %
  • 21июля
    Воскресенье
    +17°
    +29°
    Ясно и безоблачно
    ВремяПогодаТемператураВлажностьДавлениеВетер, м/сВероятность осадков
    02:00Ясно и безоблачно+18°C69 %748 мм1.9 м/с2 %
    05:00Ясно и безоблачно+16°C82 %747 мм1.9 м/с2 %
    08:00Ясно и безоблачно+22°C66 %748 мм1.6 м/с2 %
    11:00Ясно и безоблачно+26°C45 %748 мм1.7 м/с2 %
    14:00Ясно и безоблачно+28°C40 %747 мм1.6 м/с2 %
    17:00Практически безоблачно+29°C38 %746 мм1.8 м/с2 %
    20:00Ясно и безоблачно+26°C49 %746 мм2.7 м/с2 %
    23:00Небольшая облачность+21°C62 %747 мм2.6 м/с2 %
  • 22июля
    Понедельник
    +15°
    +30°
    Практически безоблачно
    ВремяПогодаТемператураВлажностьДавлениеВетер, м/сВероятность осадков
    02:00Небольшая облачность+19°C70 %747 мм3.0 м/с2 %
    05:00Ясно и безоблачно+18°C82 %746 мм1.9 м/с2 %
    08:00Ясно и безоблачно+22°C70 %747 мм1.4 м/с2 %
    11:00Небольшая облачность+27°C43 %747 мм1.2 м/с4 %
    14:00Практически безоблачно+28°C35 %747 мм1.4 м/с18 %
    17:00Пасмурно, сплошная облачность+22°C75 %748 мм5.2 м/с37 %
    20:00Облачно с прояснениями+21°C89 %749 мм2.4 м/с46 %
    23:00Небольшая облачность+20°C92 %750 мм3.3 м/с39 %
  • 23июля
    Вторник
    +14°
    +24°
    Ясно и безоблачно
    ВремяПогодаТемператураВлажностьДавлениеВетер, м/сВероятность осадков
    02:00Практически безоблачно+17°C96 %751 мм4.2 м/с39 %
    05:00Практически безоблачно+15°C95 %751 мм3.6 м/с22 %
    08:00Ясно и безоблачно+18°C83 %752 мм3.3 м/с26 %
    11:00Ясно и безоблачно+21°C60 %752 мм3.7 м/с28 %
    14:00Ясно и безоблачно+23°C46 %752 мм2.9 м/с30 %
    17:00Практически безоблачно+24°C42 %751 мм2.3 м/с23 %
    20:00Ясно и безоблачно+23°C61 %751 мм1.2 м/с16 %
    23:00Ясно и безоблачно+18°C76 %751 мм2.0 м/с16 %
Мы используем cookies
Соглашаюсь